createdAt,value
2022-11-29T00:01:42.881Z,11.92
2022-11-29T00:04:11.789Z,11.73
2022-11-29T00:06:40.241Z,11.54
2022-11-29T00:09:12.881Z,11.32
2022-11-29T00:12:00.340Z,12.13
2022-11-29T00:14:29.428Z,12.04
2022-11-29T00:17:03.188Z,11.58
2022-11-29T00:19:32.436Z,11.84
2022-11-29T00:22:01.276Z,12.15
2022-11-29T00:24:31.467Z,12.14
2022-11-29T00:26:59.134Z,12.45
2022-11-29T00:29:26.918Z,12.49
2022-11-29T00:31:54.727Z,12.38
2022-11-29T00:34:24.273Z,12.24
2022-11-29T00:36:52.438Z,12.63
2022-11-29T00:39:20.408Z,12.71
2022-11-29T00:41:48.372Z,12.37
2022-11-29T00:44:20.122Z,12.43
2022-11-29T00:46:49.346Z,12.70
2022-11-29T00:49:17.652Z,12.78
2022-11-29T00:51:51.965Z,12.78
2022-11-29T00:54:19.800Z,12.85
2022-11-29T00:56:47.637Z,12.90
2022-11-29T00:59:15.391Z,12.94
2022-11-29T01:01:43.204Z,12.92
2022-11-29T01:04:10.959Z,12.85
2022-11-29T01:06:38.725Z,12.09
2022-11-29T01:09:07.979Z,12.41
2022-11-29T01:11:36.639Z,12.23
2022-11-29T01:14:05.057Z,12.06
2022-11-29T01:16:33.815Z,12.31
2022-11-29T01:19:02.518Z,11.69
2022-11-29T01:21:30.927Z,11.25
2022-11-29T01:23:58.697Z,11.37
2022-11-29T01:26:31.210Z,11.36
2022-11-29T01:29:00.474Z,11.56
2022-11-29T01:31:32.520Z,10.94
2022-11-29T01:34:03.087Z,11.52
2022-11-29T01:36:31.444Z,11.91
2022-11-29T01:39:00.973Z,11.99
2022-11-29T01:41:33.512Z,11.80
2022-11-29T01:44:06.268Z,12.09
2022-11-29T01:46:38.255Z,11.64
2022-11-29T01:49:14.182Z,11.82
2022-11-29T01:51:48.739Z,11.80
2022-11-29T01:54:16.687Z,11.70
2022-11-29T01:56:49.938Z,12.12
2022-11-29T01:59:23.429Z,12.03
2022-11-29T02:01:52.260Z,11.85
2022-11-29T02:04:21.224Z,12.08
2022-11-29T02:06:49.489Z,11.85
2022-11-29T02:09:20.674Z,12.09
2022-11-29T02:12:15.337Z,11.86
2022-11-29T02:15:07.945Z,11.57
2022-11-29T02:17:52.780Z,11.50
2022-11-29T02:21:04.653Z,11.89
2022-11-29T02:24:23.420Z,11.21
2022-11-29T02:27:26.213Z,11.33
2022-11-29T02:30:19.653Z,11.53
2022-11-29T02:33:34.263Z,11.42
2022-11-29T02:36:41.408Z,11.28
2022-11-29T02:40:13.207Z,11.04
2022-11-29T02:43:10.813Z,10.83
2022-11-29T02:46:06.543Z,10.38
2022-11-29T02:48:56.598Z,10.77
2022-11-29T02:51:36.644Z,10.69
2022-11-29T02:54:16.648Z,10.79
2022-11-29T02:56:54.857Z,10.42
2022-11-29T02:59:43.988Z,10.48
2022-11-29T03:02:25.689Z,9.87
2022-11-29T03:05:08.668Z,10.13
2022-11-29T03:07:45.558Z,10.46
2022-11-29T03:10:29.658Z,9.92
2022-11-29T03:13:00.503Z,10.61
2022-11-29T03:15:34.802Z,10.61
2022-11-29T03:18:23.409Z,11.05
2022-11-29T03:21:11.229Z,10.80
2022-11-29T03:23:46.269Z,10.87
2022-11-29T03:26:20.086Z,11.23
2022-11-29T03:28:57.029Z,10.55
2022-11-29T03:31:32.248Z,10.14
2022-11-29T03:34:17.313Z,9.91
2022-11-29T03:37:00.471Z,10.77
2022-11-29T03:39:48.622Z,9.99
2022-11-29T03:42:27.208Z,10.72
2022-11-29T03:45:04.533Z,10.52
2022-11-29T03:47:41.730Z,10.65
2022-11-29T03:50:19.991Z,10.70
2022-11-29T03:52:55.535Z,11.21
2022-11-29T03:55:34.983Z,10.73
2022-11-29T03:58:27.972Z,11.07
2022-11-29T04:01:33.851Z,11.34
2022-11-29T04:05:00.771Z,11.18
2022-11-29T04:08:02.567Z,11.01
2022-11-29T04:11:15.261Z,11.11
2022-11-29T04:14:16.284Z,10.86
2022-11-29T04:17:39.147Z,10.75
2022-11-29T04:20:42.098Z,11.00
2022-11-29T04:23:59.797Z,11.25
2022-11-29T04:27:13.144Z,11.20
2022-11-29T04:30:04.701Z,11.55
2022-11-29T04:33:27.293Z,11.22
2022-11-29T04:36:35.557Z,10.97
2022-11-29T04:39:34.197Z,11.29
2022-11-29T04:42:55.089Z,9.95
2022-11-29T04:45:54.456Z,10.71
2022-11-29T04:48:45.057Z,11.01
2022-11-29T04:51:33.007Z,10.76
2022-11-29T04:54:21.082Z,10.79
2022-11-29T04:56:55.211Z,10.72
2022-11-29T04:59:39.299Z,10.48
2022-11-29T05:02:25.061Z,10.08
2022-11-29T05:05:01.920Z,10.16
2022-11-29T05:07:37.543Z,9.95
2022-11-29T05:10:25.740Z,9.95
2022-11-29T05:13:11.101Z,9.89
2022-11-29T05:16:09.953Z,10.79
2022-11-29T05:19:04.215Z,10.85
2022-11-29T05:21:50.367Z,10.04
2022-11-29T05:24:36.675Z,10.32
2022-11-29T05:27:23.323Z,10.61
2022-11-29T05:30:03.504Z,10.48
2022-11-29T05:32:44.773Z,10.01
2022-11-29T05:35:53.296Z,9.85
2022-11-29T05:38:45.894Z,10.03
2022-11-29T05:41:34.589Z,10.31
2022-11-29T05:44:12.285Z,10.44
2022-11-29T05:46:55.077Z,10.30
2022-11-29T05:49:39.156Z,10.41
2022-11-29T05:52:25.316Z,10.34
2022-11-29T05:55:18.507Z,9.73
2022-11-29T05:57:57.196Z,9.45
2022-11-29T06:00:28.773Z,9.09
2022-11-29T06:03:10.093Z,8.99
2022-11-29T06:05:47.264Z,8.90
2022-11-29T06:08:27.340Z,9.01
2022-11-29T06:11:06.529Z,9.25
2022-11-29T06:13:51.863Z,9.26
2022-11-29T06:16:47.628Z,9.29
2022-11-29T06:19:57.370Z,8.64
2022-11-29T06:22:48.959Z,9.12
2022-11-29T06:25:42.847Z,9.01
2022-11-29T06:28:33.451Z,9.02
2022-11-29T06:31:12.942Z,9.04
2022-11-29T06:33:56.342Z,8.97
2022-11-29T06:36:35.486Z,8.84
2022-11-29T06:39:06.905Z,9.20
2022-11-29T06:41:35.629Z,9.50
2022-11-29T06:44:04.221Z,9.82
2022-11-29T06:46:46.482Z,9.29
2022-11-29T06:49:23.851Z,9.96
2022-11-29T06:52:11.284Z,10.06
2022-11-29T06:55:04.292Z,10.17
2022-11-29T06:57:47.811Z,10.33
2022-11-29T07:00:22.391Z,9.45
2022-11-29T07:03:20.662Z,9.61
2022-11-29T07:05:49.617Z,10.32
2022-11-29T07:08:21.904Z,10.27
2022-11-29T07:10:55.540Z,9.86
2022-11-29T07:13:24.207Z,9.72
2022-11-29T07:16:04.332Z,10.47
2022-11-29T07:18:47.275Z,9.75
2022-11-29T07:21:26.594Z,9.28
2022-11-29T07:24:08.555Z,9.61
2022-11-29T07:26:56.508Z,9.54
2022-11-29T07:29:38.074Z,10.14
2022-11-29T07:32:17.929Z,9.44
2022-11-29T07:35:00.675Z,9.71
2022-11-29T07:37:40.998Z,9.92
2022-11-29T07:40:16.934Z,9.76
2022-11-29T07:43:09.095Z,8.92
2022-11-29T07:45:37.548Z,9.77
2022-11-29T07:48:06.959Z,9.55
2022-11-29T07:50:36.952Z,10.20
2022-11-29T07:53:05.896Z,9.51
2022-11-29T07:55:37.005Z,9.55
2022-11-29T07:58:06.087Z,9.90
2022-11-29T08:00:33.938Z,9.69
2022-11-29T08:03:01.866Z,9.72
2022-11-29T08:05:29.651Z,9.65
2022-11-29T08:07:57.490Z,10.04
2022-11-29T08:10:25.312Z,9.93
2022-11-29T08:12:55.245Z,9.69
2022-11-29T08:15:25.284Z,9.63
2022-11-29T08:17:54.377Z,9.39
2022-11-29T08:20:22.324Z,9.53
2022-11-29T08:22:56.615Z,9.81
2022-11-29T08:25:24.635Z,9.67
2022-11-29T08:27:52.780Z,10.52
2022-11-29T08:30:22.234Z,9.89
2022-11-29T08:32:52.195Z,9.55
2022-11-29T08:35:22.959Z,9.05
2022-11-29T08:37:51.195Z,9.52
2022-11-29T08:40:20.895Z,9.21
2022-11-29T08:42:48.691Z,9.34
2022-11-29T08:45:19.276Z,9.27
2022-11-29T08:47:47.360Z,9.25
2022-11-29T08:50:19.444Z,9.77
2022-11-29T08:53:08.289Z,9.46
2022-11-29T08:55:39.960Z,9.43
2022-11-29T08:58:11.869Z,9.70
2022-11-29T09:00:44.259Z,9.56
2022-11-29T09:03:29.586Z,10.25
2022-11-29T09:05:59.626Z,10.09
2022-11-29T09:08:27.469Z,10.22
2022-11-29T09:10:55.291Z,9.38
2022-11-29T09:13:23.130Z,9.44
2022-11-29T09:15:50.902Z,9.87
2022-11-29T09:18:18.773Z,10.00
2022-11-29T09:20:46.560Z,10.25
2022-11-29T09:23:15.879Z,9.63
2022-11-29T09:25:50.027Z,9.77
2022-11-29T09:28:17.867Z,10.07
2022-11-29T09:30:47.230Z,10.29
2022-11-29T09:33:15.062Z,10.45
2022-11-29T09:35:43.063Z,9.97
2022-11-29T09:38:13.093Z,9.67
2022-11-29T09:40:53.908Z,10.45
2022-11-29T09:43:34.791Z,10.88
2022-11-29T09:46:18.256Z,10.92
2022-11-29T09:49:12.073Z,10.43
2022-11-29T09:51:56.438Z,10.65
2022-11-29T09:54:38.899Z,11.26
2022-11-29T09:57:10.961Z,10.82
2022-11-29T09:59:46.529Z,11.15
2022-11-29T10:02:23.331Z,10.51
2022-11-29T10:04:57.021Z,11.01
2022-11-29T10:07:36.037Z,10.85
2022-11-29T10:10:13.548Z,11.13
2022-11-29T10:12:49.240Z,11.04
2022-11-29T10:15:23.942Z,11.30
2022-11-29T10:17:59.890Z,10.35
2022-11-29T10:20:39.832Z,10.03
2022-11-29T10:23:23.509Z,10.49
2022-11-29T10:25:53.861Z,10.10
2022-11-29T10:28:25.810Z,9.98
2022-11-29T10:30:56.580Z,9.75
2022-11-29T10:33:30.690Z,9.79
2022-11-29T10:36:03.470Z,9.50
2022-11-29T10:38:31.939Z,9.92
2022-11-29T10:41:08.556Z,9.67
2022-11-29T10:43:38.781Z,9.70
2022-11-29T10:46:15.584Z,9.38
2022-11-29T10:48:43.488Z,9.60
2022-11-29T10:51:18.013Z,9.62
2022-11-29T10:53:47.221Z,9.48
2022-11-29T10:56:24.170Z,9.80
2022-11-29T10:59:03.062Z,9.51
2022-11-29T11:01:33.181Z,9.82
2022-11-29T11:04:04.384Z,10.00
2022-11-29T11:06:46.812Z,10.02
2022-11-29T11:09:23.378Z,9.88
2022-11-29T11:11:53.818Z,10.29
2022-11-29T11:14:27.659Z,9.67
2022-11-29T11:16:56.182Z,9.61
2022-11-29T11:19:33.464Z,10.10
2022-11-29T11:22:04.261Z,10.60
2022-11-29T11:24:36.972Z,10.15
2022-11-29T11:27:05.335Z,10.25
2022-11-29T11:29:40.922Z,9.94
2022-11-29T11:32:19.156Z,10.37
2022-11-29T11:34:54.015Z,9.87
2022-11-29T11:37:26.430Z,9.98
2022-11-29T11:39:59.804Z,10.29
2022-11-29T11:42:40.385Z,10.29
2022-11-29T11:45:30.933Z,10.08
2022-11-29T11:48:03.929Z,10.42
2022-11-29T11:50:35.365Z,10.05
2022-11-29T11:53:07.526Z,10.62
2022-11-29T11:55:41.775Z,10.23
2022-11-29T11:58:22.871Z,10.41
2022-11-29T12:01:03.591Z,10.33
2022-11-29T12:03:51.641Z,11.15
2022-11-29T12:06:36.310Z,11.52
2022-11-29T12:09:14.115Z,10.99
2022-11-29T12:11:51.276Z,11.22
2022-11-29T12:14:33.663Z,11.13
2022-11-29T12:17:19.971Z,11.25
2022-11-29T12:20:04.427Z,10.62
2022-11-29T12:22:48.238Z,11.04
2022-11-29T12:25:23.488Z,11.48
2022-11-29T12:27:51.926Z,11.39
2022-11-29T12:30:21.822Z,11.08
2022-11-29T12:33:09.010Z,11.46
2022-11-29T12:36:01.370Z,11.30
2022-11-29T12:38:51.309Z,11.41
2022-11-29T12:41:33.200Z,11.42
2022-11-29T12:44:21.441Z,11.34
2022-11-29T12:47:34.750Z,11.87
2022-11-29T12:50:11.785Z,11.74
2022-11-29T12:52:52.938Z,12.44
2022-11-29T12:55:27.351Z,12.27
2022-11-29T12:58:07.540Z,12.34
2022-11-29T13:00:48.136Z,11.59
2022-11-29T13:03:30.100Z,12.63
2022-11-29T13:06:15.112Z,12.23
2022-11-29T13:09:04.113Z,12.97
2022-11-29T13:11:38.404Z,12.91
2022-11-29T13:14:41.967Z,12.44
2022-11-29T13:17:29.331Z,13.02
2022-11-29T13:20:01.491Z,12.91
2022-11-29T13:22:44.292Z,14.04
2022-11-29T13:25:20.203Z,13.93
2022-11-29T13:27:59.434Z,14.31
2022-11-29T13:30:28.124Z,14.47
2022-11-29T13:33:07.097Z,14.27
2022-11-29T13:35:47.891Z,15.00
2022-11-29T13:38:26.500Z,15.40
2022-11-29T13:41:03.471Z,14.55
2022-11-29T13:43:42.698Z,14.43
2022-11-29T13:46:24.676Z,15.56
2022-11-29T13:48:54.952Z,15.78
2022-11-29T13:51:29.455Z,14.71
2022-11-29T13:54:02.642Z,14.91
2022-11-29T13:56:42.786Z,14.96
2022-11-29T13:59:20.198Z,15.33
2022-11-29T14:01:51.642Z,13.82
2022-11-29T14:04:30.378Z,14.51
2022-11-29T14:07:20.623Z,13.86
2022-11-29T14:09:59.893Z,13.40
2022-11-29T14:12:38.200Z,13.50
2022-11-29T14:15:22.577Z,13.15
2022-11-29T14:17:57.812Z,13.01
2022-11-29T14:20:57.305Z,13.12
2022-11-29T14:23:35.922Z,12.59
2022-11-29T14:26:32.569Z,12.75
2022-11-29T14:29:01.153Z,12.79
2022-11-29T14:31:51.175Z,12.19
2022-11-29T14:34:55.052Z,12.50
2022-11-29T14:37:48.403Z,12.26
2022-11-29T14:40:37.581Z,12.81
2022-11-29T14:43:25.729Z,12.32
2022-11-29T14:46:10.712Z,12.38
2022-11-29T14:48:39.264Z,12.54
2022-11-29T14:51:13.609Z,12.23
2022-11-29T14:53:44.729Z,12.75
2022-11-29T14:56:45.562Z,12.03
2022-11-29T14:59:51.028Z,12.12
2022-11-29T15:02:34.606Z,11.32
2022-11-29T15:05:18.859Z,12.39
2022-11-29T15:07:55.752Z,12.34
2022-11-29T15:10:30.632Z,11.42
2022-11-29T15:13:02.260Z,12.15
2022-11-29T15:15:45.567Z,11.82
2022-11-29T15:18:41.923Z,11.81
2022-11-29T15:21:29.883Z,11.80
2022-11-29T15:24:02.948Z,12.02
2022-11-29T15:26:32.355Z,11.79
2022-11-29T15:29:15.031Z,12.42
2022-11-29T15:31:45.824Z,12.47
2022-11-29T15:34:30.571Z,12.05
2022-11-29T15:36:58.540Z,11.84
2022-11-29T15:39:32.932Z,11.58
2022-11-29T15:42:03.103Z,11.93
2022-11-29T15:44:32.682Z,12.45
2022-11-29T15:47:23.383Z,12.45
2022-11-29T15:49:51.504Z,12.07
2022-11-29T15:52:31.409Z,11.98
2022-11-29T15:55:04.700Z,11.95
2022-11-29T15:57:39.704Z,12.23
2022-11-29T16:00:16.782Z,12.21
2022-11-29T16:02:52.561Z,12.17
2022-11-29T16:05:24.484Z,12.40
2022-11-29T16:07:57.065Z,11.91
2022-11-29T16:10:43.439Z,11.45
2022-11-29T16:13:34.339Z,12.05
2022-11-29T16:16:14.270Z,11.97
2022-11-29T16:18:47.160Z,12.29
2022-11-29T16:21:27.138Z,12.43
2022-11-29T16:23:56.167Z,12.54
2022-11-29T16:26:29.441Z,12.24
2022-11-29T16:28:58.366Z,11.01
2022-11-29T16:31:35.896Z,11.78
2022-11-29T16:34:14.901Z,11.94
2022-11-29T16:36:42.709Z,12.27
2022-11-29T16:39:24.363Z,11.92
2022-11-29T16:42:08.035Z,12.28
2022-11-29T16:45:32.082Z,11.93
2022-11-29T16:48:01.500Z,11.83
2022-11-29T16:50:56.673Z,11.75
2022-11-29T16:53:51.019Z,12.32
2022-11-29T16:56:25.841Z,12.21
2022-11-29T16:59:25.786Z,12.25
2022-11-29T17:01:46.110Z,12.12
2022-11-29T17:04:24.041Z,11.77
2022-11-29T17:06:55.859Z,12.36
2022-11-29T17:09:27.590Z,12.19
2022-11-29T17:11:56.709Z,12.32
2022-11-29T17:14:24.508Z,12.52
2022-11-29T17:16:54.976Z,12.54
2022-11-29T17:19:23.823Z,11.86
2022-11-29T17:21:53.736Z,12.54
2022-11-29T17:24:24.723Z,12.25
2022-11-29T17:26:52.883Z,12.58
2022-11-29T17:29:20.916Z,12.28
2022-11-29T17:31:50.379Z,12.32
2022-11-29T17:34:18.655Z,12.28
2022-11-29T17:36:46.702Z,12.59
2022-11-29T17:39:20.077Z,12.44
2022-11-29T17:41:55.923Z,12.43
2022-11-29T17:44:26.002Z,12.14
2022-11-29T17:46:53.897Z,12.35
2022-11-29T17:49:21.954Z,12.47
2022-11-29T17:51:52.863Z,12.50
2022-11-29T17:54:23.322Z,12.51
2022-11-29T17:56:51.800Z,12.73
2022-11-29T17:59:20.449Z,12.51
2022-11-29T18:01:48.768Z,12.70
2022-11-29T18:04:16.771Z,12.51
2022-11-29T18:06:49.859Z,12.08
2022-11-29T18:09:20.449Z,12.44
2022-11-29T18:11:50.877Z,12.59
2022-11-29T18:14:22.635Z,12.19
2022-11-29T18:16:50.928Z,11.95
2022-11-29T18:19:23.111Z,12.13
2022-11-29T18:21:52.331Z,11.73
2022-11-29T18:24:20.655Z,11.99
2022-11-29T18:26:49.999Z,12.27
2022-11-29T18:29:17.812Z,12.22
2022-11-29T18:31:47.001Z,11.55
2022-11-29T18:34:16.147Z,11.48
2022-11-29T18:36:46.778Z,11.26
2022-11-29T18:39:16.897Z,10.71
2022-11-29T18:41:47.764Z,10.74
2022-11-29T18:44:29.009Z,10.66
2022-11-29T18:46:57.658Z,10.87
2022-11-29T18:49:25.467Z,10.78
2022-11-29T18:51:53.478Z,10.95
2022-11-29T18:54:21.215Z,10.81
2022-11-29T18:56:51.693Z,10.87
2022-11-29T18:59:22.057Z,10.68
2022-11-29T19:01:50.478Z,10.77
2022-11-29T19:04:21.614Z,10.59
2022-11-29T19:06:50.441Z,10.25
2022-11-29T19:09:22.200Z,10.01
2022-11-29T19:11:51.122Z,10.38
2022-11-29T19:14:21.294Z,10.61
2022-11-29T19:16:50.882Z,10.92
2022-11-29T19:19:19.673Z,10.52
2022-11-29T19:21:47.978Z,10.68
2022-11-29T19:24:18.025Z,10.58
2022-11-29T19:26:48.486Z,10.38
2022-11-29T19:29:18.524Z,10.51
2022-11-29T19:31:48.237Z,10.57
2022-11-29T19:34:16.088Z,10.36
2022-11-29T19:36:45.114Z,10.68
2022-11-29T19:39:15.519Z,10.59
2022-11-29T19:41:46.504Z,10.61
2022-11-29T19:44:14.496Z,10.12
2022-11-29T19:46:45.722Z,10.04
2022-11-29T19:49:15.689Z,9.72
2022-11-29T19:51:43.564Z,10.12
2022-11-29T19:54:12.260Z,10.05
2022-11-29T19:56:41.630Z,10.40
2022-11-29T19:59:09.928Z,10.46
2022-11-29T20:01:41.819Z,10.45
2022-11-29T20:04:11.650Z,10.49
2022-11-29T20:06:41.936Z,10.02
2022-11-29T20:09:10.148Z,10.14
2022-11-29T20:11:38.108Z,10.30
2022-11-29T20:14:08.802Z,9.78
2022-11-29T20:16:39.033Z,10.44
2022-11-29T20:19:10.731Z,10.38
2022-11-29T20:21:44.849Z,10.10
2022-11-29T20:24:14.197Z,10.05
2022-11-29T20:26:44.148Z,9.94
2022-11-29T20:29:13.061Z,10.38
2022-11-29T20:31:49.077Z,10.18
2022-11-29T20:34:17.635Z,9.89
2022-11-29T20:37:20.113Z,9.55
2022-11-29T20:39:58.011Z,9.81
2022-11-29T20:43:03.877Z,9.65
2022-11-29T20:45:34.751Z,9.86
2022-11-29T20:48:13.103Z,9.17
2022-11-29T20:50:46.827Z,9.44
2022-11-29T20:53:32.968Z,9.06
2022-11-29T20:56:01.428Z,9.55
2022-11-29T20:58:29.310Z,9.32
2022-11-29T21:00:57.981Z,9.02
2022-11-29T21:03:28.581Z,9.33
2022-11-29T21:05:58.296Z,9.62
2022-11-29T21:08:28.155Z,9.83
2022-11-29T21:11:01.720Z,9.63
2022-11-29T21:13:31.693Z,9.64
2022-11-29T21:16:00.418Z,9.58
2022-11-29T21:18:31.060Z,9.30
2022-11-29T21:21:16.382Z,9.66
2022-11-29T21:23:59.225Z,9.91
2022-11-29T21:26:38.550Z,10.17
2022-11-29T21:29:17.511Z,10.05
2022-11-29T21:31:47.031Z,10.03
2022-11-29T21:34:15.230Z,9.82
2022-11-29T21:36:44.940Z,9.49
2022-11-29T21:39:17.102Z,9.89
2022-11-29T21:41:44.943Z,9.32
2022-11-29T21:44:12.730Z,9.31
2022-11-29T21:46:40.784Z,9.09
2022-11-29T21:49:08.601Z,9.04
2022-11-29T21:51:36.438Z,9.02
2022-11-29T21:54:04.294Z,8.97
2022-11-29T21:56:33.442Z,8.90
2022-11-29T21:59:01.169Z,9.00
2022-11-29T22:01:29.381Z,8.88
2022-11-29T22:03:59.556Z,9.07
2022-11-29T22:06:29.360Z,8.93
2022-11-29T22:08:58.091Z,9.20
2022-11-29T22:11:32.164Z,9.09
2022-11-29T22:14:16.028Z,9.23
2022-11-29T22:16:47.086Z,8.89
2022-11-29T22:19:21.265Z,9.07
2022-11-29T22:21:51.653Z,9.01
2022-11-29T22:24:20.976Z,9.40
2022-11-29T22:26:50.499Z,9.60
2022-11-29T22:29:20.835Z,9.71
2022-11-29T22:31:50.165Z,9.80
2022-11-29T22:34:17.937Z,10.06
2022-11-29T22:36:46.301Z,9.84
2022-11-29T22:39:14.590Z,9.87
2022-11-29T22:41:43.308Z,10.21
2022-11-29T22:44:11.497Z,10.04
2022-11-29T22:46:41.634Z,10.37
2022-11-29T22:49:10.497Z,10.41
2022-11-29T22:51:40.466Z,10.07
2022-11-29T22:54:11.349Z,9.95
2022-11-29T22:56:41.516Z,10.28
2022-11-29T22:59:10.441Z,9.74
2022-11-29T23:01:42.524Z,9.55
2022-11-29T23:04:13.126Z,10.19
2022-11-29T23:06:43.987Z,10.18
2022-11-29T23:09:16.304Z,10.07
2022-11-29T23:11:46.209Z,9.99
2022-11-29T23:14:14.436Z,10.33
2022-11-29T23:16:44.011Z,10.41
2022-11-29T23:19:11.902Z,10.85
2022-11-29T23:21:44.625Z,10.83
2022-11-29T23:24:13.128Z,11.05
2022-11-29T23:26:45.152Z,10.70
2022-11-29T23:29:16.215Z,11.16
2022-11-29T23:31:46.601Z,11.24
2022-11-29T23:34:14.989Z,11.33
2022-11-29T23:36:45.814Z,11.36
2022-11-29T23:39:16.087Z,11.29
2022-11-29T23:41:43.885Z,11.38
2022-11-29T23:44:11.887Z,11.43
2022-11-29T23:46:39.850Z,11.39
2022-11-29T23:49:08.931Z,11.51
2022-11-29T23:51:36.741Z,11.53
2022-11-29T23:54:05.295Z,11.48
2022-11-29T23:56:35.416Z,11.47
2022-11-29T23:59:03.240Z,11.47
